This is the latest recevied weather packets stored in our database for station/object K7DC. If no packets are shown the sender has not sent any weather packets the latest 10 day(s).
| Time | Temp. | Humidity | Pressure | Rain* | Wind** | Luminosity | Snow |
|---|---|---|---|---|---|---|---|
| 1777831275 | 26.67° C | 31% | 1014.5 hPa | 0 mm | - | 361 W/m² | - |
| 1777829151 | 26.11° C | 31% | 1014.8 hPa | 0 mm | - | 435 W/m² | - |
| 1777827938 | 26.11° C | 30% | 1015.3 hPa | 0 mm | - | 299 W/m² | - |
| 1777827029 | 26.67° C | 29% | 1015.1 hPa | 0 mm | - | 283 W/m² | - |
| 1777825817 | 25° C | 31% | 1015.3 hPa | 0 mm | - | 288 W/m² | - |
| 1777824909 | 23.33° C | 34% | 1015.2 hPa | 0 mm | - | 241 W/m² | - |
| 1777824302 | 23.33° C | 35% | 1015 hPa | 0 mm | - | 229 W/m² | - |
| 1777821576 | 22.22° C | 37% | 1015.1 hPa | 0 mm | - | 149 W/m² | - |
| 1777818546 | 20° C | 40% | 1015 hPa | 0 mm | - | 107 W/m² | - |
| 1777817939 | 20° C | 41% | 1014.6 hPa | 0 mm | - | 90 W/m² | - |
| 1777816122 | 17.78° C | 47% | 1014.3 hPa | 0 mm | - | 66 W/m² | - |
| 1777815214 | 17.78° C | 51% | 1014.4 hPa | 0 mm | - | 37 W/m² | - |
| 1777814910 | 17.78° C | 48% | 1014.4 hPa | 0 mm | - | 38 W/m² | - |
| 1777814607 | 17.78° C | 47% | 1014.2 hPa | 0 mm | - | 29 W/m² | - |
| 1777810670 | 17.22° C | 42% | 1013.9 hPa | 0 mm | - | 0 W/m² | - |
| 1777809761 | 17.78° C | 41% | 1014 hPa | 0 mm | - | 0 W/m² | - |
| 1777808247 | 17.78° C | 42% | 1013.8 hPa | 0 mm | - | 0 W/m² | - |
| 1777807340 | 17.78° C | 42% | 1013.7 hPa | 0 mm | - | 0 W/m² | - |
| 1777807036 | 17.78° C | 43% | 1014 hPa | 0 mm | - | 0 W/m² | - |
| 1777806733 | 17.78° C | 42% | 1013.8 hPa | 0 mm | - | 0 W/m² | - |
| 1777806126 | 17.78° C | 43% | 1013.7 hPa | 0 mm | - | 0 W/m² | - |
| 1777805822 | 18.33° C | 42% | 1013.8 hPa | 0 mm | - | 0 W/m² | - |
| 1777804612 | 18.33° C | 43% | 1013.8 hPa | 0 mm | - | 0 W/m² | - |
| 1777804007 | 18.89° C | 41% | 1013.7 hPa | 0 mm | - | 0 W/m² | - |
| 1777803703 | 19.44° C | 40% | 1013.9 hPa | 0 mm | - | 0 W/m² | - |
* Rain latest hour (hover to see other rain measurements)
** Current wind speed in m/s (hover to see current wind gust speed)